5VA4 weather

Reston Hospital Center Heliport
Herndon, Virginia, United States

Public forecast

Using degrees Fahrenheit for public forecast. Weather courtesy of forecast.io.

METAR (pilot weather report)

Closest report is Washington Dulles International Airport, 4.5 nm (8.3 km) WSW. Retrieved 2019/05/19 14:52 UTC (1 hour ago):

KIAD 191452Z 00000KT 10SM FEW012 SCT120 BKN250 24/20 A3002 RMK AO2 SLP164 T02390200 58002

TAF (pilot weather forecast)

Closest forecast is Washington Dulles International Airport, 4.5 nm (8.3 km) WSW. Retrieved 2019/05/19 12:40 UTC (3 hours ago):

TAF KIAD 191138Z 1912/2018 VRB03KT P6SM OVC015 FM191400 18005KT P6SM SCT025 FM192000 19010G20KT P6SM VCTS SCT060CB FM200300 18009KT P6SM SCT060 FM201100 21007KT P6SM BKN250 FM201500 23010G19KT P6SM BKN050